sensor_id;sensor_type;location;lat;lon;timestamp;P1;durP1;ratioP1;P2;durP2;ratioP2
61487;SDS011;47351;53.326;-6.298;2022-10-22T00:00:34;5.50;;;1.60;;
61487;SDS011;47351;53.326;-6.298;2022-10-22T00:03:05;6.10;;;1.70;;
61487;SDS011;47351;53.326;-6.298;2022-10-22T00:05:36;4.60;;;1.30;;
61487;SDS011;47351;53.326;-6.298;2022-10-22T00:08:08;7.00;;;1.60;;
61487;SDS011;47351;53.326;-6.298;2022-10-22T00:10:39;6.10;;;1.70;;
61487;SDS011;47351;53.326;-6.298;2022-10-22T00:13:11;5.30;;;1.70;;
61487;SDS011;47351;53.326;-6.298;2022-10-22T00:15:43;6.60;;;1.30;;
61487;SDS011;47351;53.326;-6.298;2022-10-22T00:18:14;7.00;;;1.60;;
61487;SDS011;47351;53.326;-6.298;2022-10-22T00:20:45;4.30;;;1.20;;
61487;SDS011;47351;53.326;-6.298;2022-10-22T00:23:17;3.80;;;1.30;;
61487;SDS011;47351;53.326;-6.298;2022-10-22T00:25:48;5.00;;;1.20;;
61487;SDS011;47351;53.326;-6.298;2022-10-22T00:28:20;3.10;;;1.20;;
61487;SDS011;47351;53.326;-6.298;2022-10-22T00:30:55;4.00;;;1.10;;
61487;SDS011;47351;53.326;-6.298;2022-10-22T00:33:28;4.60;;;1.10;;
61487;SDS011;47351;53.326;-6.298;2022-10-22T00:35:59;4.10;;;1.30;;
61487;SDS011;47351;53.326;-6.298;2022-10-22T00:38:30;5.90;;;1.20;;
61487;SDS011;47351;53.326;-6.298;2022-10-22T00:41:01;6.50;;;1.50;;
61487;SDS011;47351;53.326;-6.298;2022-10-22T00:43:33;6.20;;;1.10;;
61487;SDS011;47351;53.326;-6.298;2022-10-22T00:46:18;4.80;;;1.10;;
61487;SDS011;47351;53.326;-6.298;2022-10-22T00:48:49;4.90;;;1.20;;
61487;SDS011;47351;53.326;-6.298;2022-10-22T00:51:21;5.20;;;1.00;;
61487;SDS011;47351;53.326;-6.298;2022-10-22T00:53:59;9.70;;;1.10;;
61487;SDS011;47351;53.326;-6.298;2022-10-22T00:56:36;3.00;;;1.00;;
61487;SDS011;47351;53.326;-6.298;2022-10-22T00:59:07;3.70;;;1.00;;
61487;SDS011;47351;53.326;-6.298;2022-10-22T01:01:41;7.60;;;1.20;;
61487;SDS011;47351;53.326;-6.298;2022-10-22T01:04:14;6.30;;;0.90;;
61487;SDS011;47351;53.326;-6.298;2022-10-22T01:06:46;2.90;;;1.30;;
61487;SDS011;47351;53.326;-6.298;2022-10-22T01:09:20;6.50;;;1.20;;
61487;SDS011;47351;53.326;-6.298;2022-10-22T01:11:59;3.80;;;1.00;;
61487;SDS011;47351;53.326;-6.298;2022-10-22T01:14:39;3.10;;;0.90;;
61487;SDS011;47351;53.326;-6.298;2022-10-22T01:17:21;6.30;;;0.90;;
61487;SDS011;47351;53.326;-6.298;2022-10-22T01:20:03;3.80;;;1.00;;
61487;SDS011;47351;53.326;-6.298;2022-10-22T01:22:50;4.10;;;1.00;;
61487;SDS011;47351;53.326;-6.298;2022-10-22T01:25:30;3.60;;;0.70;;
61487;SDS011;47351;53.326;-6.298;2022-10-22T01:28:08;4.40;;;0.90;;
61487;SDS011;47351;53.326;-6.298;2022-10-22T01:33:18;2.80;;;0.70;;
61487;SDS011;47351;53.326;-6.298;2022-10-22T01:35:54;3.40;;;0.80;;
61487;SDS011;47351;53.326;-6.298;2022-10-22T01:38:27;4.20;;;0.90;;
61487;SDS011;47351;53.326;-6.298;2022-10-22T01:41:00;3.70;;;0.90;;
61487;SDS011;47351;53.326;-6.298;2022-10-22T01:43:32;4.60;;;0.80;;
61487;SDS011;47351;53.326;-6.298;2022-10-22T01:46:04;7.40;;;1.00;;
61487;SDS011;47351;53.326;-6.298;2022-10-22T01:48:41;3.90;;;0.90;;
61487;SDS011;47351;53.326;-6.298;2022-10-22T01:51:24;4.50;;;1.00;;
61487;SDS011;47351;53.326;-6.298;2022-10-22T01:54:09;3.50;;;1.10;;
61487;SDS011;47351;53.326;-6.298;2022-10-22T01:56:55;3.70;;;0.90;;
61487;SDS011;47351;53.326;-6.298;2022-10-22T01:59:37;3.40;;;0.80;;
61487;SDS011;47351;53.326;-6.298;2022-10-22T02:02:22;4.20;;;0.80;;
61487;SDS011;47351;53.326;-6.298;2022-10-22T02:07:35;5.50;;;1.00;;
61487;SDS011;47351;53.326;-6.298;2022-10-22T02:10:10;2.60;;;0.70;;
61487;SDS011;47351;53.326;-6.298;2022-10-22T02:12:42;4.40;;;1.20;;
61487;SDS011;47351;53.326;-6.298;2022-10-22T02:15:18;2.20;;;0.80;;
61487;SDS011;47351;53.326;-6.298;2022-10-22T02:17:52;3.10;;;0.90;;
61487;SDS011;47351;53.326;-6.298;2022-10-22T02:20:27;4.90;;;0.90;;
61487;SDS011;47351;53.326;-6.298;2022-10-22T02:23:01;4.30;;;0.90;;
61487;SDS011;47351;53.326;-6.298;2022-10-22T02:25:34;3.70;;;0.70;;
61487;SDS011;47351;53.326;-6.298;2022-10-22T02:28:10;4.70;;;0.70;;
61487;SDS011;47351;53.326;-6.298;2022-10-22T02:30:47;3.70;;;0.70;;
61487;SDS011;47351;53.326;-6.298;2022-10-22T02:33:22;3.00;;;0.60;;
61487;SDS011;47351;53.326;-6.298;2022-10-22T02:35:57;5.10;;;0.80;;
61487;SDS011;47351;53.326;-6.298;2022-10-22T02:38:30;3.30;;;0.70;;
61487;SDS011;47351;53.326;-6.298;2022-10-22T02:41:04;4.20;;;1.10;;
61487;SDS011;47351;53.326;-6.298;2022-10-22T02:43:39;3.10;;;0.70;;
61487;SDS011;47351;53.326;-6.298;2022-10-22T02:46:11;3.00;;;0.70;;
61487;SDS011;47351;53.326;-6.298;2022-10-22T02:48:43;5.90;;;1.10;;
61487;SDS011;47351;53.326;-6.298;2022-10-22T02:51:14;3.90;;;0.70;;
61487;SDS011;47351;53.326;-6.298;2022-10-22T02:53:45;4.40;;;0.70;;
61487;SDS011;47351;53.326;-6.298;2022-10-22T02:56:17;6.40;;;0.80;;
61487;SDS011;47351;53.326;-6.298;2022-10-22T02:58:48;3.10;;;0.80;;
61487;SDS011;47351;53.326;-6.298;2022-10-22T03:01:19;3.00;;;0.60;;
61487;SDS011;47351;53.326;-6.298;2022-10-22T03:03:51;4.70;;;0.70;;
61487;SDS011;47351;53.326;-6.298;2022-10-22T03:06:22;3.60;;;0.80;;
61487;SDS011;47351;53.326;-6.298;2022-10-22T03:08:54;5.00;;;0.70;;
61487;SDS011;47351;53.326;-6.298;2022-10-22T03:11:26;4.80;;;0.70;;
61487;SDS011;47351;53.326;-6.298;2022-10-22T03:13:57;2.70;;;0.80;;
61487;SDS011;47351;53.326;-6.298;2022-10-22T03:16:28;3.30;;;0.70;;
61487;SDS011;47351;53.326;-6.298;2022-10-22T03:18:59;4.80;;;0.70;;
61487;SDS011;47351;53.326;-6.298;2022-10-22T03:21:32;6.40;;;1.10;;
61487;SDS011;47351;53.326;-6.298;2022-10-22T03:24:07;3.60;;;0.80;;
61487;SDS011;47351;53.326;-6.298;2022-10-22T03:26:41;4.50;;;1.10;;
61487;SDS011;47351;53.326;-6.298;2022-10-22T03:29:14;6.40;;;0.80;;
61487;SDS011;47351;53.326;-6.298;2022-10-22T03:31:45;7.90;;;0.90;;
61487;SDS011;47351;53.326;-6.298;2022-10-22T03:34:16;5.30;;;0.80;;
61487;SDS011;47351;53.326;-6.298;2022-10-22T03:36:48;4.40;;;1.10;;
61487;SDS011;47351;53.326;-6.298;2022-10-22T03:39:20;4.30;;;0.70;;
61487;SDS011;47351;53.326;-6.298;2022-10-22T03:41:51;5.70;;;1.10;;
61487;SDS011;47351;53.326;-6.298;2022-10-22T03:44:23;8.00;;;1.40;;
61487;SDS011;47351;53.326;-6.298;2022-10-22T03:46:56;5.00;;;1.10;;
61487;SDS011;47351;53.326;-6.298;2022-10-22T03:49:29;7.00;;;1.00;;
61487;SDS011;47351;53.326;-6.298;2022-10-22T03:52:05;5.70;;;0.90;;
61487;SDS011;47351;53.326;-6.298;2022-10-22T03:54:37;4.90;;;0.80;;
61487;SDS011;47351;53.326;-6.298;2022-10-22T03:57:09;6.60;;;1.10;;
61487;SDS011;47351;53.326;-6.298;2022-10-22T03:59:41;6.20;;;1.00;;
61487;SDS011;47351;53.326;-6.298;2022-10-22T04:02:14;6.40;;;1.00;;
61487;SDS011;47351;53.326;-6.298;2022-10-22T04:04:45;12.70;;;1.80;;
61487;SDS011;47351;53.326;-6.298;2022-10-22T04:07:17;5.80;;;1.10;;
61487;SDS011;47351;53.326;-6.298;2022-10-22T04:09:48;8.40;;;1.30;;
61487;SDS011;47351;53.326;-6.298;2022-10-22T04:12:19;8.40;;;1.10;;
61487;SDS011;47351;53.326;-6.298;2022-10-22T04:14:50;7.20;;;1.20;;
61487;SDS011;47351;53.326;-6.298;2022-10-22T04:17:22;7.50;;;1.20;;
61487;SDS011;47351;53.326;-6.298;2022-10-22T04:19:53;7.80;;;1.10;;
61487;SDS011;47351;53.326;-6.298;2022-10-22T04:22:24;7.20;;;1.20;;
61487;SDS011;47351;53.326;-6.298;2022-10-22T04:24:55;5.10;;;1.00;;
61487;SDS011;47351;53.326;-6.298;2022-10-22T04:27:29;10.80;;;2.20;;
61487;SDS011;47351;53.326;-6.298;2022-10-22T04:30:01;8.30;;;1.30;;
61487;SDS011;47351;53.326;-6.298;2022-10-22T04:32:34;10.10;;;1.40;;
61487;SDS011;47351;53.326;-6.298;2022-10-22T04:35:07;9.90;;;1.60;;
61487;SDS011;47351;53.326;-6.298;2022-10-22T04:37:38;11.30;;;2.30;;
61487;SDS011;47351;53.326;-6.298;2022-10-22T04:40:11;10.50;;;1.60;;
61487;SDS011;47351;53.326;-6.298;2022-10-22T04:42:42;9.70;;;1.30;;
61487;SDS011;47351;53.326;-6.298;2022-10-22T04:45:14;9.40;;;1.80;;
61487;SDS011;47351;53.326;-6.298;2022-10-22T04:47:45;9.40;;;1.30;;
61487;SDS011;47351;53.326;-6.298;2022-10-22T04:50:16;8.60;;;1.30;;
61487;SDS011;47351;53.326;-6.298;2022-10-22T04:52:48;9.70;;;1.60;;
61487;SDS011;47351;53.326;-6.298;2022-10-22T04:55:19;11.10;;;1.20;;
61487;SDS011;47351;53.326;-6.298;2022-10-22T04:57:51;9.80;;;1.20;;
61487;SDS011;47351;53.326;-6.298;2022-10-22T05:00:23;9.20;;;1.20;;
61487;SDS011;47351;53.326;-6.298;2022-10-22T05:02:54;8.20;;;1.20;;
61487;SDS011;47351;53.326;-6.298;2022-10-22T05:05:26;9.60;;;1.30;;
61487;SDS011;47351;53.326;-6.298;2022-10-22T05:07:57;10.80;;;1.40;;
61487;SDS011;47351;53.326;-6.298;2022-10-22T05:10:29;8.50;;;1.20;;
61487;SDS011;47351;53.326;-6.298;2022-10-22T05:13:00;12.80;;;1.80;;
61487;SDS011;47351;53.326;-6.298;2022-10-22T05:15:33;12.90;;;1.70;;
61487;SDS011;47351;53.326;-6.298;2022-10-22T05:18:04;14.70;;;1.80;;
61487;SDS011;47351;53.326;-6.298;2022-10-22T05:20:39;11.80;;;1.80;;
61487;SDS011;47351;53.326;-6.298;2022-10-22T05:23:10;11.10;;;2.40;;
61487;SDS011;47351;53.326;-6.298;2022-10-22T05:25:42;15.10;;;1.60;;
61487;SDS011;47351;53.326;-6.298;2022-10-22T05:28:13;11.10;;;1.40;;
61487;SDS011;47351;53.326;-6.298;2022-10-22T05:30:52;12.70;;;2.60;;
61487;SDS011;47351;53.326;-6.298;2022-10-22T05:33:24;15.30;;;1.60;;
61487;SDS011;47351;53.326;-6.298;2022-10-22T05:35:57;15.40;;;1.70;;
61487;SDS011;47351;53.326;-6.298;2022-10-22T05:38:30;11.90;;;1.70;;
61487;SDS011;47351;53.326;-6.298;2022-10-22T05:43:41;9.60;;;1.60;;
61487;SDS011;47351;53.326;-6.298;2022-10-22T05:46:17;6.40;;;1.20;;
61487;SDS011;47351;53.326;-6.298;2022-10-22T05:48:51;18.50;;;1.90;;
61487;SDS011;47351;53.326;-6.298;2022-10-22T05:51:24;10.90;;;1.70;;
61487;SDS011;47351;53.326;-6.298;2022-10-22T05:54:04;14.00;;;1.80;;
61487;SDS011;47351;53.326;-6.298;2022-10-22T05:56:38;11.60;;;1.80;;
61487;SDS011;47351;53.326;-6.298;2022-10-22T05:59:10;10.90;;;1.80;;
61487;SDS011;47351;53.326;-6.298;2022-10-22T06:01:42;10.40;;;1.80;;
61487;SDS011;47351;53.326;-6.298;2022-10-22T06:04:14;11.70;;;1.60;;
61487;SDS011;47351;53.326;-6.298;2022-10-22T06:06:46;10.10;;;1.70;;
61487;SDS011;47351;53.326;-6.298;2022-10-22T06:09:20;11.50;;;2.80;;
61487;SDS011;47351;53.326;-6.298;2022-10-22T06:11:55;13.50;;;2.40;;
61487;SDS011;47351;53.326;-6.298;2022-10-22T06:14:27;11.60;;;1.60;;
61487;SDS011;47351;53.326;-6.298;2022-10-22T06:17:01;8.10;;;2.30;;
61487;SDS011;47351;53.326;-6.298;2022-10-22T06:19:32;8.30;;;1.30;;
61487;SDS011;47351;53.326;-6.298;2022-10-22T06:22:10;12.80;;;1.70;;
61487;SDS011;47351;53.326;-6.298;2022-10-22T06:25:11;8.30;;;1.20;;
61487;SDS011;47351;53.326;-6.298;2022-10-22T06:27:51;7.60;;;1.30;;
61487;SDS011;47351;53.326;-6.298;2022-10-22T06:30:22;7.90;;;1.50;;
61487;SDS011;47351;53.326;-6.298;2022-10-22T06:32:54;12.00;;;2.00;;
61487;SDS011;47351;53.326;-6.298;2022-10-22T06:35:26;11.00;;;1.60;;
61487;SDS011;47351;53.326;-6.298;2022-10-22T06:37:57;8.50;;;1.30;;
61487;SDS011;47351;53.326;-6.298;2022-10-22T06:40:29;9.20;;;1.30;;
61487;SDS011;47351;53.326;-6.298;2022-10-22T06:43:00;10.00;;;1.50;;
61487;SDS011;47351;53.326;-6.298;2022-10-22T06:45:33;10.20;;;1.50;;
61487;SDS011;47351;53.326;-6.298;2022-10-22T06:48:04;9.90;;;1.40;;
61487;SDS011;47351;53.326;-6.298;2022-10-22T06:50:36;8.10;;;1.40;;
61487;SDS011;47351;53.326;-6.298;2022-10-22T06:53:07;15.40;;;1.70;;
61487;SDS011;47351;53.326;-6.298;2022-10-22T06:55:39;11.80;;;1.80;;
61487;SDS011;47351;53.326;-6.298;2022-10-22T06:58:10;12.80;;;2.30;;
61487;SDS011;47351;53.326;-6.298;2022-10-22T07:00:42;9.60;;;1.80;;
61487;SDS011;47351;53.326;-6.298;2022-10-22T07:03:13;9.30;;;1.40;;
61487;SDS011;47351;53.326;-6.298;2022-10-22T07:05:45;16.70;;;1.80;;
61487;SDS011;47351;53.326;-6.298;2022-10-22T07:08:16;9.00;;;1.70;;
61487;SDS011;47351;53.326;-6.298;2022-10-22T07:10:47;11.70;;;1.50;;
61487;SDS011;47351;53.326;-6.298;2022-10-22T07:13:19;8.70;;;1.30;;
61487;SDS011;47351;53.326;-6.298;2022-10-22T07:15:54;6.20;;;1.20;;
61487;SDS011;47351;53.326;-6.298;2022-10-22T07:18:25;6.90;;;1.40;;
61487;SDS011;47351;53.326;-6.298;2022-10-22T07:20:58;7.20;;;1.30;;
61487;SDS011;47351;53.326;-6.298;2022-10-22T07:23:30;13.60;;;1.70;;
61487;SDS011;47351;53.326;-6.298;2022-10-22T07:26:01;8.70;;;1.60;;
61487;SDS011;47351;53.326;-6.298;2022-10-22T07:28:36;5.70;;;1.30;;
61487;SDS011;47351;53.326;-6.298;2022-10-22T07:31:09;8.80;;;1.50;;
61487;SDS011;47351;53.326;-6.298;2022-10-22T07:33:41;11.80;;;1.70;;
61487;SDS011;47351;53.326;-6.298;2022-10-22T07:36:14;10.70;;;1.20;;
61487;SDS011;47351;53.326;-6.298;2022-10-22T07:38:46;8.40;;;1.60;;
61487;SDS011;47351;53.326;-6.298;2022-10-22T07:41:24;10.20;;;2.00;;
61487;SDS011;47351;53.326;-6.298;2022-10-22T07:43:56;10.50;;;1.90;;
61487;SDS011;47351;53.326;-6.298;2022-10-22T07:46:28;8.40;;;1.40;;
61487;SDS011;47351;53.326;-6.298;2022-10-22T07:48:59;8.10;;;1.40;;
61487;SDS011;47351;53.326;-6.298;2022-10-22T07:51:30;8.50;;;1.80;;
61487;SDS011;47351;53.326;-6.298;2022-10-22T07:54:02;8.00;;;2.00;;
61487;SDS011;47351;53.326;-6.298;2022-10-22T07:56:33;7.20;;;1.70;;
61487;SDS011;47351;53.326;-6.298;2022-10-22T07:59:04;8.80;;;1.70;;
61487;SDS011;47351;53.326;-6.298;2022-10-22T08:01:36;8.40;;;1.30;;
61487;SDS011;47351;53.326;-6.298;2022-10-22T08:04:07;7.60;;;1.40;;
61487;SDS011;47351;53.326;-6.298;2022-10-22T08:06:39;6.80;;;1.10;;
61487;SDS011;47351;53.326;-6.298;2022-10-22T08:09:14;8.50;;;1.20;;
61487;SDS011;47351;53.326;-6.298;2022-10-22T08:11:45;9.80;;;1.80;;
61487;SDS011;47351;53.326;-6.298;2022-10-22T08:14:17;8.70;;;1.30;;
61487;SDS011;47351;53.326;-6.298;2022-10-22T08:16:48;11.90;;;1.70;;
61487;SDS011;47351;53.326;-6.298;2022-10-22T08:19:19;9.90;;;1.70;;
61487;SDS011;47351;53.326;-6.298;2022-10-22T08:21:50;9.00;;;1.60;;
61487;SDS011;47351;53.326;-6.298;2022-10-22T08:24:22;7.20;;;1.10;;
61487;SDS011;47351;53.326;-6.298;2022-10-22T08:26:54;7.70;;;1.50;;
61487;SDS011;47351;53.326;-6.298;2022-10-22T08:29:25;7.60;;;1.20;;
61487;SDS011;47351;53.326;-6.298;2022-10-22T08:31:56;9.50;;;1.40;;
61487;SDS011;47351;53.326;-6.298;2022-10-22T08:34:29;7.80;;;1.60;;
61487;SDS011;47351;53.326;-6.298;2022-10-22T08:37:01;11.10;;;1.50;;
61487;SDS011;47351;53.326;-6.298;2022-10-22T08:39:32;9.50;;;1.10;;
61487;SDS011;47351;53.326;-6.298;2022-10-22T08:42:12;8.30;;;1.20;;
61487;SDS011;47351;53.326;-6.298;2022-10-22T08:45:12;6.50;;;1.10;;
61487;SDS011;47351;53.326;-6.298;2022-10-22T08:47:57;5.60;;;1.00;;
61487;SDS011;47351;53.326;-6.298;2022-10-22T08:50:37;8.80;;;1.20;;
61487;SDS011;47351;53.326;-6.298;2022-10-22T08:53:13;6.10;;;1.60;;
61487;SDS011;47351;53.326;-6.298;2022-10-22T08:55:46;7.80;;;1.30;;
61487;SDS011;47351;53.326;-6.298;2022-10-22T08:58:21;6.50;;;1.30;;
61487;SDS011;47351;53.326;-6.298;2022-10-22T09:00:59;8.10;;;1.40;;
61487;SDS011;47351;53.326;-6.298;2022-10-22T09:03:35;8.70;;;1.40;;
61487;SDS011;47351;53.326;-6.298;2022-10-22T09:06:14;7.30;;;1.00;;
61487;SDS011;47351;53.326;-6.298;2022-10-22T09:08:49;11.70;;;1.50;;
61487;SDS011;47351;53.326;-6.298;2022-10-22T09:11:24;9.00;;;1.40;;
61487;SDS011;47351;53.326;-6.298;2022-10-22T09:13:57;7.50;;;1.60;;
61487;SDS011;47351;53.326;-6.298;2022-10-22T09:16:33;9.10;;;2.10;;
61487;SDS011;47351;53.326;-6.298;2022-10-22T09:19:12;5.10;;;0.90;;
61487;SDS011;47351;53.326;-6.298;2022-10-22T09:21:56;6.60;;;1.40;;
61487;SDS011;47351;53.326;-6.298;2022-10-22T09:24:38;7.20;;;1.40;;
61487;SDS011;47351;53.326;-6.298;2022-10-22T09:27:13;9.40;;;1.20;;
61487;SDS011;47351;53.326;-6.298;2022-10-22T09:29:46;9.80;;;1.70;;
61487;SDS011;47351;53.326;-6.298;2022-10-22T09:32:18;9.30;;;1.30;;
61487;SDS011;47351;53.326;-6.298;2022-10-22T09:34:53;6.20;;;1.20;;
61487;SDS011;47351;53.326;-6.298;2022-10-22T09:37:27;10.70;;;1.90;;
61487;SDS011;47351;53.326;-6.298;2022-10-22T09:39:58;7.20;;;1.30;;
61487;SDS011;47351;53.326;-6.298;2022-10-22T09:42:34;6.00;;;1.40;;
61487;SDS011;47351;53.326;-6.298;2022-10-22T09:45:13;6.30;;;1.30;;
61487;SDS011;47351;53.326;-6.298;2022-10-22T09:47:47;7.90;;;1.30;;
61487;SDS011;47351;53.326;-6.298;2022-10-22T09:50:36;11.80;;;1.50;;
61487;SDS011;47351;53.326;-6.298;2022-10-22T09:53:13;10.10;;;1.50;;
61487;SDS011;47351;53.326;-6.298;2022-10-22T09:55:50;9.10;;;1.70;;
61487;SDS011;47351;53.326;-6.298;2022-10-22T09:58:27;8.40;;;1.60;;
61487;SDS011;47351;53.326;-6.298;2022-10-22T10:01:14;9.30;;;1.30;;
61487;SDS011;47351;53.326;-6.298;2022-10-22T10:03:48;6.70;;;1.40;;
61487;SDS011;47351;53.326;-6.298;2022-10-22T10:06:20;11.00;;;1.70;;
61487;SDS011;47351;53.326;-6.298;2022-10-22T10:08:52;11.10;;;1.20;;
61487;SDS011;47351;53.326;-6.298;2022-10-22T10:11:27;9.80;;;1.40;;
61487;SDS011;47351;53.326;-6.298;2022-10-22T10:14:08;7.20;;;1.20;;
61487;SDS011;47351;53.326;-6.298;2022-10-22T10:16:47;6.70;;;1.00;;
61487;SDS011;47351;53.326;-6.298;2022-10-22T10:19:29;6.30;;;1.10;;
61487;SDS011;47351;53.326;-6.298;2022-10-22T10:22:21;7.70;;;1.30;;
61487;SDS011;47351;53.326;-6.298;2022-10-22T10:25:13;4.40;;;0.90;;
61487;SDS011;47351;53.326;-6.298;2022-10-22T10:28:03;6.20;;;1.10;;
61487;SDS011;47351;53.326;-6.298;2022-10-22T10:30:47;6.20;;;1.20;;
61487;SDS011;47351;53.326;-6.298;2022-10-22T10:33:27;7.70;;;1.30;;
61487;SDS011;47351;53.326;-6.298;2022-10-22T10:36:10;5.20;;;0.90;;
61487;SDS011;47351;53.326;-6.298;2022-10-22T10:38:55;7.70;;;1.10;;
61487;SDS011;47351;53.326;-6.298;2022-10-22T10:41:35;6.10;;;1.20;;
61487;SDS011;47351;53.326;-6.298;2022-10-22T10:44:32;6.50;;;1.40;;
61487;SDS011;47351;53.326;-6.298;2022-10-22T10:47:21;6.60;;;1.20;;
61487;SDS011;47351;53.326;-6.298;2022-10-22T10:50:11;6.00;;;1.40;;
61487;SDS011;47351;53.326;-6.298;2022-10-22T10:52:52;7.50;;;1.40;;
61487;SDS011;47351;53.326;-6.298;2022-10-22T10:55:30;4.30;;;1.10;;
61487;SDS011;47351;53.326;-6.298;2022-10-22T10:58:11;10.60;;;2.10;;
61487;SDS011;47351;53.326;-6.298;2022-10-22T11:03:57;5.00;;;1.20;;
61487;SDS011;47351;53.326;-6.298;2022-10-22T11:06:38;5.90;;;1.20;;
61487;SDS011;47351;53.326;-6.298;2022-10-22T11:09:13;5.80;;;1.20;;
61487;SDS011;47351;53.326;-6.298;2022-10-22T11:11:54;4.80;;;1.10;;
61487;SDS011;47351;53.326;-6.298;2022-10-22T11:14:31;7.40;;;1.40;;
61487;SDS011;47351;53.326;-6.298;2022-10-22T11:17:09;3.70;;;1.20;;
61487;SDS011;47351;53.326;-6.298;2022-10-22T11:19:44;6.70;;;1.20;;
61487;SDS011;47351;53.326;-6.298;2022-10-22T11:22:27;8.60;;;1.20;;
61487;SDS011;47351;53.326;-6.298;2022-10-22T11:25:02;6.90;;;1.20;;
61487;SDS011;47351;53.326;-6.298;2022-10-22T11:27:44;5.50;;;1.20;;
61487;SDS011;47351;53.326;-6.298;2022-10-22T11:30:21;6.40;;;1.30;;
61487;SDS011;47351;53.326;-6.298;2022-10-22T11:32:56;5.50;;;1.40;;
61487;SDS011;47351;53.326;-6.298;2022-10-22T11:35:30;5.20;;;1.20;;
61487;SDS011;47351;53.326;-6.298;2022-10-22T11:38:04;6.70;;;1.40;;
61487;SDS011;47351;53.326;-6.298;2022-10-22T11:40:41;5.20;;;1.20;;
61487;SDS011;47351;53.326;-6.298;2022-10-22T11:43:26;5.70;;;1.40;;
61487;SDS011;47351;53.326;-6.298;2022-10-22T11:46:07;6.60;;;1.40;;
61487;SDS011;47351;53.326;-6.298;2022-10-22T11:49:02;4.40;;;1.30;;
61487;SDS011;47351;53.326;-6.298;2022-10-22T11:51:45;4.60;;;1.60;;
61487;SDS011;47351;53.326;-6.298;2022-10-22T11:54:30;3.50;;;1.00;;
61487;SDS011;47351;53.326;-6.298;2022-10-22T11:57:20;4.90;;;1.50;;
61487;SDS011;47351;53.326;-6.298;2022-10-22T11:59:58;5.30;;;1.30;;
61487;SDS011;47351;53.326;-6.298;2022-10-22T12:02:42;5.70;;;1.40;;
61487;SDS011;47351;53.326;-6.298;2022-10-22T12:05:18;6.50;;;1.20;;
61487;SDS011;47351;53.326;-6.298;2022-10-22T12:08:05;4.30;;;1.00;;
61487;SDS011;47351;53.326;-6.298;2022-10-22T12:10:56;4.10;;;1.20;;
61487;SDS011;47351;53.326;-6.298;2022-10-22T12:13:33;6.30;;;1.20;;
61487;SDS011;47351;53.326;-6.298;2022-10-22T12:16:26;5.60;;;1.10;;
61487;SDS011;47351;53.326;-6.298;2022-10-22T12:19:29;3.80;;;1.10;;
61487;SDS011;47351;53.326;-6.298;2022-10-22T12:22:10;4.60;;;1.20;;
61487;SDS011;47351;53.326;-6.298;2022-10-22T12:24:44;4.70;;;1.00;;
61487;SDS011;47351;53.326;-6.298;2022-10-22T12:27:21;5.60;;;1.10;;
61487;SDS011;47351;53.326;-6.298;2022-10-22T12:29:54;4.30;;;1.00;;
61487;SDS011;47351;53.326;-6.298;2022-10-22T12:32:32;2.90;;;0.90;;
61487;SDS011;47351;53.326;-6.298;2022-10-22T12:35:07;5.60;;;1.10;;
61487;SDS011;47351;53.326;-6.298;2022-10-22T12:37:47;4.90;;;1.00;;
61487;SDS011;47351;53.326;-6.298;2022-10-22T12:40:20;3.00;;;0.70;;
61487;SDS011;47351;53.326;-6.298;2022-10-22T12:42:54;4.20;;;0.80;;
61487;SDS011;47351;53.326;-6.298;2022-10-22T12:45:28;4.60;;;0.90;;
61487;SDS011;47351;53.326;-6.298;2022-10-22T12:48:02;4.00;;;0.70;;
61487;SDS011;47351;53.326;-6.298;2022-10-22T12:50:40;3.50;;;0.70;;
61487;SDS011;47351;53.326;-6.298;2022-10-22T12:53:21;2.50;;;0.70;;
61487;SDS011;47351;53.326;-6.298;2022-10-22T12:55:58;3.50;;;0.90;;
61487;SDS011;47351;53.326;-6.298;2022-10-22T12:58:33;3.10;;;0.80;;
61487;SDS011;47351;53.326;-6.298;2022-10-22T13:01:10;3.50;;;0.70;;
61487;SDS011;47351;53.326;-6.298;2022-10-22T13:03:46;8.50;;;1.00;;
61487;SDS011;47351;53.326;-6.298;2022-10-22T13:09:38;4.50;;;1.00;;
61487;SDS011;47351;53.326;-6.298;2022-10-22T13:12:12;5.50;;;1.00;;
61487;SDS011;47351;53.326;-6.298;2022-10-22T13:14:52;6.20;;;1.00;;
61487;SDS011;47351;53.326;-6.298;2022-10-22T13:17:37;5.10;;;1.00;;
61487;SDS011;47351;53.326;-6.298;2022-10-22T13:20:17;4.70;;;1.00;;
61487;SDS011;47351;53.326;-6.298;2022-10-22T13:22:55;6.50;;;1.10;;
61487;SDS011;47351;53.326;-6.298;2022-10-22T13:25:35;5.70;;;1.20;;
61487;SDS011;47351;53.326;-6.298;2022-10-22T13:28:17;5.30;;;1.10;;
61487;SDS011;47351;53.326;-6.298;2022-10-22T13:30:54;4.50;;;1.00;;
61487;SDS011;47351;53.326;-6.298;2022-10-22T13:33:28;5.90;;;1.00;;
61487;SDS011;47351;53.326;-6.298;2022-10-22T13:36:08;6.10;;;1.20;;
61487;SDS011;47351;53.326;-6.298;2022-10-22T13:38:45;7.40;;;1.10;;
61487;SDS011;47351;53.326;-6.298;2022-10-22T13:41:22;4.80;;;1.10;;
61487;SDS011;47351;53.326;-6.298;2022-10-22T13:43:58;6.40;;;1.40;;
61487;SDS011;47351;53.326;-6.298;2022-10-22T13:46:30;6.50;;;1.30;;
61487;SDS011;47351;53.326;-6.298;2022-10-22T13:49:11;7.60;;;1.50;;
61487;SDS011;47351;53.326;-6.298;2022-10-22T13:51:51;7.00;;;1.20;;
61487;SDS011;47351;53.326;-6.298;2022-10-22T13:54:26;7.30;;;1.30;;
61487;SDS011;47351;53.326;-6.298;2022-10-22T13:56:58;7.40;;;2.50;;
61487;SDS011;47351;53.326;-6.298;2022-10-22T13:59:29;6.40;;;1.50;;
61487;SDS011;47351;53.326;-6.298;2022-10-22T14:02:06;6.40;;;1.30;;
61487;SDS011;47351;53.326;-6.298;2022-10-22T14:04:40;5.50;;;1.30;;
61487;SDS011;47351;53.326;-6.298;2022-10-22T14:07:15;5.90;;;1.50;;
61487;SDS011;47351;53.326;-6.298;2022-10-22T14:09:47;8.30;;;1.30;;
61487;SDS011;47351;53.326;-6.298;2022-10-22T14:12:19;6.20;;;1.40;;
61487;SDS011;47351;53.326;-6.298;2022-10-22T14:14:52;8.00;;;1.50;;
61487;SDS011;47351;53.326;-6.298;2022-10-22T14:17:24;6.30;;;1.40;;
61487;SDS011;47351;53.326;-6.298;2022-10-22T14:20:12;5.50;;;1.50;;
61487;SDS011;47351;53.326;-6.298;2022-10-22T14:22:50;7.70;;;1.50;;
61487;SDS011;47351;53.326;-6.298;2022-10-22T14:25:24;7.40;;;1.30;;
61487;SDS011;47351;53.326;-6.298;2022-10-22T14:28:24;6.50;;;1.50;;
61487;SDS011;47351;53.326;-6.298;2022-10-22T14:30:59;9.70;;;1.50;;
61487;SDS011;47351;53.326;-6.298;2022-10-22T14:33:33;7.90;;;1.50;;
61487;SDS011;47351;53.326;-6.298;2022-10-22T14:36:09;6.60;;;1.40;;
61487;SDS011;47351;53.326;-6.298;2022-10-22T14:41:48;8.20;;;1.50;;
61487;SDS011;47351;53.326;-6.298;2022-10-22T14:44:21;7.50;;;1.40;;
61487;SDS011;47351;53.326;-6.298;2022-10-22T14:46:59;7.80;;;1.80;;
61487;SDS011;47351;53.326;-6.298;2022-10-22T14:49:31;9.40;;;2.00;;
61487;SDS011;47351;53.326;-6.298;2022-10-22T14:52:03;6.90;;;1.50;;
61487;SDS011;47351;53.326;-6.298;2022-10-22T14:54:40;6.30;;;1.70;;
61487;SDS011;47351;53.326;-6.298;2022-10-22T14:57:12;8.30;;;1.50;;
61487;SDS011;47351;53.326;-6.298;2022-10-22T14:59:52;7.90;;;1.90;;
61487;SDS011;47351;53.326;-6.298;2022-10-22T15:02:23;8.00;;;1.20;;
61487;SDS011;47351;53.326;-6.298;2022-10-22T15:04:55;6.20;;;1.80;;
61487;SDS011;47351;53.326;-6.298;2022-10-22T15:07:27;8.60;;;1.90;;
61487;SDS011;47351;53.326;-6.298;2022-10-22T15:09:59;10.00;;;1.90;;
61487;SDS011;47351;53.326;-6.298;2022-10-22T15:12:30;11.70;;;2.80;;
61487;SDS011;47351;53.326;-6.298;2022-10-22T15:15:02;10.90;;;1.50;;
61487;SDS011;47351;53.326;-6.298;2022-10-22T15:17:35;13.10;;;1.60;;
61487;SDS011;47351;53.326;-6.298;2022-10-22T15:20:07;7.40;;;1.20;;
61487;SDS011;47351;53.326;-6.298;2022-10-22T15:22:40;6.30;;;1.30;;
61487;SDS011;47351;53.326;-6.298;2022-10-22T15:25:12;10.00;;;1.50;;
61487;SDS011;47351;53.326;-6.298;2022-10-22T15:27:44;5.80;;;1.70;;
61487;SDS011;47351;53.326;-6.298;2022-10-22T15:30:18;7.90;;;1.60;;
61487;SDS011;47351;53.326;-6.298;2022-10-22T15:32:50;7.60;;;1.60;;
61487;SDS011;47351;53.326;-6.298;2022-10-22T15:35:21;7.70;;;1.50;;
61487;SDS011;47351;53.326;-6.298;2022-10-22T15:37:55;5.50;;;1.20;;